Quantico, Virginia
Current Conditions -  °F | °C
As of 7:56 PM on Friday 24 Oct 2014 (Local Time) from KNYG Reporting Station
Clear Clear  
Wind Chill: 53°   Ceiling: Unl
Heat Index: 53°   Visibility: 10mi
Dew Point: 45°   Wind: 7mph
Humidity: 74%   Direction: 310°NW
Pressure: 29.95"   Gusts: NA
Location:  38.52°N, 77.29°W
Report Text: KNYG 242356Z AUTO 31006KT 10SM CLR 12/07 A2995 RMK AO2 SLP143 T01170072 10206 20117 51011 $
Loading
Personal Weather Stations






























Interactive Weather Map
Tropical Storm Tracking
New forecast layout! Learn more

10-Day Weather Forecast

Advertisements
Track Severe Weather on mobile